createdAt,value
2022-11-13T00:02:10.871Z,100196.14
2022-11-13T00:04:43.433Z,100195.82
2022-11-13T00:07:17.375Z,100194.27
2022-11-13T00:09:50.040Z,100188.27
2022-11-13T00:12:23.213Z,100193.77
2022-11-13T00:14:56.327Z,100188.91
2022-11-13T00:17:28.467Z,100182.67
2022-11-13T00:20:00.691Z,100179.83
2022-11-13T00:22:33.402Z,100175.14
2022-11-13T00:25:06.835Z,100183.26
2022-11-13T00:27:40.481Z,100185.10
2022-11-13T00:30:19.324Z,100181.41
2022-11-13T00:32:51.843Z,100178.36
2022-11-13T00:35:25.380Z,100178.55
2022-11-13T00:37:58.742Z,100187.02
2022-11-13T00:40:30.849Z,100186.15
2022-11-13T00:43:03.807Z,100186.44
2022-11-13T00:45:37.242Z,100181.24
2022-11-13T00:48:10.687Z,100173.33
2022-11-13T00:50:43.394Z,100176.09
2022-11-13T00:53:18.235Z,100176.32
2022-11-13T00:55:51.011Z,100175.37
2022-11-13T00:58:24.534Z,100171.86
2022-11-13T01:00:58.811Z,100168.81
2022-11-13T01:03:30.674Z,100167.66
2022-11-13T01:06:02.944Z,100161.00
2022-11-13T01:08:35.230Z,100157.19
2022-11-13T01:11:13.544Z,100154.26
2022-11-13T01:13:47.320Z,100156.39
2022-11-13T01:16:23.700Z,100157.54
2022-11-13T01:18:56.758Z,100151.70
2022-11-13T01:21:29.745Z,100148.73
2022-11-13T01:24:05.569Z,100158.12
2022-11-13T01:26:37.597Z,100155.60
2022-11-13T01:29:12.594Z,100152.50
2022-11-13T01:31:44.684Z,100151.98
2022-11-13T01:34:16.559Z,100150.45
2022-11-13T01:36:48.472Z,100146.80
2022-11-13T01:39:23.782Z,100141.28
2022-11-13T01:41:56.129Z,100141.02
2022-11-13T01:44:32.445Z,100140.54
2022-11-13T01:47:07.979Z,100132.73
2022-11-13T01:49:41.750Z,100128.98
2022-11-13T01:52:19.463Z,100132.43
2022-11-13T01:54:54.346Z,100124.98
2022-11-13T01:57:28.674Z,100124.69
2022-11-13T02:00:07.262Z,100123.15
2022-11-13T02:02:40.009Z,100120.17
2022-11-13T02:05:13.557Z,100116.42
2022-11-13T02:07:46.408Z,100111.51
2022-11-13T02:10:19.023Z,100107.24
2022-11-13T02:12:52.962Z,100110.34
2022-11-13T02:15:27.789Z,100101.71
2022-11-13T02:18:02.859Z,100095.17
2022-11-13T02:20:42.267Z,100093.59
2022-11-13T02:23:18.576Z,100094.04
2022-11-13T02:25:54.732Z,100085.44
2022-11-13T02:28:26.999Z,100088.60
2022-11-13T02:31:00.504Z,100088.90
2022-11-13T02:33:34.122Z,100088.27
2022-11-13T02:36:07.698Z,100094.40
2022-11-13T02:38:40.485Z,100091.73
2022-11-13T02:41:13.589Z,100090.81
2022-11-13T02:43:46.854Z,100088.23
2022-11-13T02:46:22.825Z,100087.48
2022-11-13T02:48:54.867Z,100089.19
2022-11-13T02:51:28.332Z,100093.85
2022-11-13T02:54:01.374Z,100090.71
2022-11-13T02:56:35.024Z,100090.30
2022-11-13T02:59:09.105Z,100094.98
2022-11-13T03:01:41.130Z,100092.77
2022-11-13T03:04:14.977Z,100085.95
2022-11-13T03:06:47.713Z,100083.98
2022-11-13T03:09:20.120Z,100086.48
2022-11-13T03:11:52.449Z,100080.91
2022-11-13T03:14:25.280Z,100083.07
2022-11-13T03:16:57.392Z,100079.00
2022-11-13T03:19:31.796Z,100070.42
2022-11-13T03:22:08.332Z,100070.85
2022-11-13T03:24:40.966Z,100076.57
2022-11-13T03:27:17.386Z,100082.34
2022-11-13T03:29:49.836Z,100087.88
2022-11-13T03:32:26.334Z,100092.02
2022-11-13T03:34:59.208Z,100090.81
2022-11-13T03:37:32.351Z,100097.08
2022-11-13T03:40:05.394Z,100096.10
2022-11-13T03:42:38.532Z,100098.09
2022-11-13T03:45:12.190Z,100095.48
2022-11-13T03:47:44.741Z,100101.31
2022-11-13T03:50:18.982Z,100108.05
2022-11-13T03:52:51.184Z,100109.70
2022-11-13T03:55:22.956Z,100109.19
2022-11-13T03:57:54.934Z,100114.09
2022-11-13T04:00:27.100Z,100111.63
2022-11-13T04:03:00.514Z,100109.78
2022-11-13T04:05:33.001Z,100106.58
2022-11-13T04:08:07.031Z,100103.08
2022-11-13T04:10:38.814Z,100103.11
2022-11-13T04:13:11.532Z,100103.52
2022-11-13T04:15:44.623Z,100107.63
2022-11-13T04:18:16.572Z,100104.59
2022-11-13T04:20:50.298Z,100103.77
2022-11-13T04:23:22.889Z,100099.88
2022-11-13T04:25:55.387Z,100099.42
2022-11-13T04:28:27.991Z,100091.98
2022-11-13T04:31:00.729Z,100091.61
2022-11-13T04:33:32.750Z,100094.33
2022-11-13T04:36:12.009Z,100094.02
2022-11-13T04:38:45.510Z,100098.08
2022-11-13T04:41:38.064Z,100092.14
2022-11-13T04:44:10.694Z,100088.38
2022-11-13T04:46:44.320Z,100090.83
2022-11-13T04:49:16.376Z,100098.12
2022-11-13T04:51:50.764Z,100094.48
2022-11-13T04:54:28.697Z,100094.69
2022-11-13T04:57:02.713Z,100094.48
2022-11-13T04:59:38.498Z,100097.19
2022-11-13T05:02:11.527Z,100096.97
2022-11-13T05:04:45.725Z,100097.31
2022-11-13T05:07:18.604Z,100098.77
2022-11-13T05:09:51.139Z,100096.56
2022-11-13T05:12:26.221Z,100098.80
2022-11-13T05:14:59.763Z,100100.70
2022-11-13T05:17:33.166Z,100095.01
2022-11-13T05:20:07.041Z,100092.42
2022-11-13T05:22:39.437Z,100092.77
2022-11-13T05:25:12.565Z,100091.02
2022-11-13T05:27:45.471Z,100088.98
2022-11-13T05:30:20.437Z,100087.00
2022-11-13T05:32:53.108Z,100087.34
2022-11-13T05:35:25.906Z,100078.38
2022-11-13T05:38:00.974Z,100082.02
2022-11-13T05:40:33.467Z,100079.27
2022-11-13T05:43:09.126Z,100078.17
2022-11-13T05:45:43.740Z,100078.02
2022-11-13T05:48:16.580Z,100078.88
2022-11-13T05:50:48.481Z,100086.05
2022-11-13T05:53:21.117Z,100084.70
2022-11-13T05:55:52.908Z,100076.98
2022-11-13T05:58:25.460Z,100081.23
2022-11-13T06:01:08.501Z,100075.64
2022-11-13T06:03:43.794Z,100073.17
2022-11-13T06:06:17.682Z,100074.11
2022-11-13T06:08:51.051Z,100077.29
2022-11-13T06:11:27.612Z,100078.98
2022-11-13T06:14:03.915Z,100082.11
2022-11-13T06:16:39.790Z,100084.74
2022-11-13T06:19:13.433Z,100089.11
2022-11-13T06:21:47.546Z,100088.16
2022-11-13T06:24:20.717Z,100085.08
2022-11-13T06:26:55.800Z,100086.35
2022-11-13T06:29:28.495Z,100084.02
2022-11-13T06:32:00.573Z,100083.86
2022-11-13T06:34:32.693Z,100085.10
2022-11-13T06:37:08.882Z,100083.65
2022-11-13T06:39:41.416Z,100085.73
2022-11-13T06:42:13.768Z,100082.59
2022-11-13T06:44:45.779Z,100084.77
2022-11-13T06:47:19.288Z,100083.04
2022-11-13T06:49:51.862Z,100078.70
2022-11-13T06:52:26.196Z,100077.64
2022-11-13T06:55:02.315Z,100077.67
2022-11-13T06:57:34.341Z,100077.96
2022-11-13T07:00:09.856Z,100071.63
2022-11-13T07:02:41.967Z,100070.01
2022-11-13T07:05:15.332Z,100070.77
2022-11-13T07:07:47.330Z,100070.39
2022-11-13T07:10:21.473Z,100070.84
2022-11-13T07:12:54.835Z,100064.10
2022-11-13T07:15:28.724Z,100067.77
2022-11-13T07:18:03.109Z,100078.58
2022-11-13T07:20:36.191Z,100073.55
2022-11-13T07:23:08.868Z,100063.66
2022-11-13T07:25:41.140Z,100064.21
2022-11-13T07:28:16.706Z,100064.00
2022-11-13T07:30:49.330Z,100061.34
2022-11-13T07:33:21.882Z,100055.77
2022-11-13T07:35:55.840Z,100058.34
2022-11-13T07:38:29.597Z,100058.12
2022-11-13T07:41:02.628Z,100059.16
2022-11-13T07:43:38.743Z,100066.67
2022-11-13T07:46:10.553Z,100061.40
2022-11-13T07:48:42.702Z,100067.88
2022-11-13T07:51:14.813Z,100063.01
2022-11-13T07:53:46.638Z,100062.77
2022-11-13T07:56:22.841Z,100060.54
2022-11-13T07:58:55.642Z,100054.35
2022-11-13T08:01:29.411Z,100062.91
2022-11-13T08:04:03.801Z,100058.71
2022-11-13T08:06:37.817Z,100063.94
2022-11-13T08:09:10.927Z,100064.50
2022-11-13T08:11:42.833Z,100062.27
2022-11-13T08:14:15.732Z,100066.27
2022-11-13T08:16:47.677Z,100064.98
2022-11-13T08:19:21.239Z,100062.70
2022-11-13T08:21:55.749Z,100061.27
2022-11-13T08:24:27.727Z,100058.13
2022-11-13T08:27:00.560Z,100062.06
2022-11-13T08:29:34.113Z,100064.30
2022-11-13T08:32:07.486Z,100067.88
2022-11-13T08:34:40.732Z,100062.80
2022-11-13T08:37:12.858Z,100067.11
2022-11-13T08:39:45.801Z,100064.76
2022-11-13T08:42:18.259Z,100063.27
2022-11-13T08:44:50.411Z,100066.06
2022-11-13T08:47:28.285Z,100065.81
2022-11-13T08:50:02.622Z,100064.37
2022-11-13T08:52:38.590Z,100069.23
2022-11-13T08:55:11.242Z,100070.75
2022-11-13T08:57:44.473Z,100074.69
2022-11-13T09:00:19.436Z,100079.23
2022-11-13T09:02:57.017Z,100081.33
2022-11-13T09:05:30.191Z,100085.42
2022-11-13T09:08:03.818Z,100081.70
2022-11-13T09:10:38.841Z,100085.52
2022-11-13T09:13:11.816Z,100083.80
2022-11-13T09:15:45.252Z,100082.85
2022-11-13T09:18:17.967Z,100082.85
2022-11-13T09:20:51.166Z,100083.15
2022-11-13T09:23:24.961Z,100078.17
2022-11-13T09:25:57.169Z,100074.80
2022-11-13T09:28:30.321Z,100077.69
2022-11-13T09:31:04.510Z,100081.15
2022-11-13T09:33:37.873Z,100083.70
2022-11-13T09:36:15.545Z,100075.95
2022-11-13T09:38:50.796Z,100069.90
2022-11-13T09:41:27.383Z,100068.95
2022-11-13T09:44:06.904Z,100074.67
2022-11-13T09:46:45.413Z,100082.98
2022-11-13T09:49:19.874Z,100080.50
2022-11-13T09:51:55.493Z,100078.83
2022-11-13T09:54:27.825Z,100079.95
2022-11-13T09:57:05.637Z,100074.28
2022-11-13T09:59:43.916Z,100073.11
2022-11-13T10:02:22.381Z,100074.70
2022-11-13T10:05:00.860Z,100068.05
2022-11-13T10:07:41.340Z,100065.51
2022-11-13T10:10:37.493Z,100067.02
2022-11-13T10:13:16.210Z,100065.45
2022-11-13T10:15:53.729Z,100062.98
2022-11-13T10:18:30.901Z,100064.44
2022-11-13T10:21:11.144Z,100065.75
2022-11-13T10:23:44.808Z,100062.48
2022-11-13T10:26:21.352Z,100056.36
2022-11-13T10:29:10.805Z,100054.36
2022-11-13T10:31:48.361Z,100052.40
2022-11-13T10:34:21.312Z,100049.66
2022-11-13T10:37:08.783Z,100055.85
2022-11-13T10:39:46.509Z,100054.45
2022-11-13T10:42:28.965Z,100052.30
2022-11-13T10:45:08.246Z,100048.04
2022-11-13T10:48:03.791Z,100047.34
2022-11-13T10:50:37.693Z,100051.13
2022-11-13T10:53:19.341Z,100052.20
2022-11-13T10:55:53.634Z,100048.64
2022-11-13T10:58:27.642Z,100049.18
2022-11-13T11:01:01.582Z,100044.13
2022-11-13T11:03:36.152Z,100039.45
2022-11-13T11:06:09.591Z,100042.00
2022-11-13T11:08:42.302Z,100041.88
2022-11-13T11:11:38.628Z,100038.77
2022-11-13T11:14:26.517Z,100038.96
2022-11-13T11:17:00.066Z,100032.44
2022-11-13T11:19:35.520Z,100033.90
2022-11-13T11:22:10.269Z,100033.01
2022-11-13T11:24:48.003Z,100025.14
2022-11-13T11:27:23.480Z,100022.71
2022-11-13T11:30:02.631Z,100018.69
2022-11-13T11:32:40.870Z,100011.63
2022-11-13T11:35:19.253Z,100011.73
2022-11-13T11:37:55.699Z,100000.66
2022-11-13T11:40:32.008Z,99999.91
2022-11-13T11:43:15.086Z,99995.13
2022-11-13T11:45:48.342Z,99991.63
2022-11-13T11:48:22.531Z,99990.41
2022-11-13T11:51:05.173Z,99984.16
2022-11-13T11:53:49.809Z,99977.80
2022-11-13T11:56:26.364Z,99979.60
2022-11-13T11:59:27.466Z,99979.79
2022-11-13T12:02:32.255Z,99970.72
2022-11-13T12:05:23.080Z,99967.95
2022-11-13T12:08:05.460Z,99959.73
2022-11-13T12:10:44.757Z,99955.16
2022-11-13T12:13:30.577Z,99950.64
2022-11-13T12:16:10.704Z,99949.53
2022-11-13T12:18:57.038Z,99948.83
2022-11-13T12:21:33.693Z,99944.08
2022-11-13T12:24:41.351Z,99941.13
2022-11-13T12:27:23.565Z,99929.09
2022-11-13T12:30:10.136Z,99926.23
2022-11-13T12:33:20.633Z,99921.80
2022-11-13T12:35:54.576Z,99918.11
2022-11-13T12:38:38.350Z,99911.63
2022-11-13T12:41:19.723Z,99912.52
2022-11-13T12:44:08.665Z,99911.96
2022-11-13T12:46:43.348Z,99910.40
2022-11-13T12:49:33.321Z,99910.40
2022-11-13T12:52:20.130Z,99900.79
2022-11-13T12:54:52.795Z,99903.84
2022-11-13T12:57:30.698Z,99897.02
2022-11-13T13:00:23.641Z,99901.27
2022-11-13T13:03:02.766Z,99899.30
2022-11-13T13:05:51.206Z,99899.05
2022-11-13T13:08:36.599Z,99899.05
2022-11-13T13:11:17.282Z,99892.88
2022-11-13T13:13:56.309Z,99889.30
2022-11-13T13:16:30.482Z,99883.91
2022-11-13T13:19:30.553Z,99878.75
2022-11-13T13:22:05.082Z,99875.07
2022-11-13T13:24:38.731Z,99878.98
2022-11-13T13:27:28.072Z,99878.33
2022-11-13T13:30:13.639Z,99877.65
2022-11-13T13:32:55.562Z,99871.88
2022-11-13T13:35:31.249Z,99879.30
2022-11-13T13:38:07.313Z,99877.10
2022-11-13T13:40:42.666Z,99873.15
2022-11-13T13:43:28.429Z,99870.33
2022-11-13T13:46:08.461Z,99866.38
2022-11-13T13:48:45.264Z,99864.34
2022-11-13T13:51:29.500Z,99862.13
2022-11-13T13:54:03.900Z,99856.34
2022-11-13T13:56:37.519Z,99851.37
2022-11-13T13:59:21.942Z,99853.02
2022-11-13T14:02:00.226Z,99851.46
2022-11-13T14:04:34.570Z,99850.46
2022-11-13T14:07:21.663Z,99850.89
2022-11-13T14:10:09.035Z,99845.50
2022-11-13T14:12:44.112Z,99841.41
2022-11-13T14:15:29.913Z,99841.35
2022-11-13T14:18:13.807Z,99842.98
2022-11-13T14:20:49.158Z,99836.75
2022-11-13T14:23:23.636Z,99832.77
2022-11-13T14:25:56.069Z,99832.67
2022-11-13T14:28:31.886Z,99830.30
2022-11-13T14:31:06.962Z,99823.46
2022-11-13T14:33:47.929Z,99822.66
2022-11-13T14:36:30.069Z,99828.70
2022-11-13T14:39:04.309Z,99830.00
2022-11-13T14:41:38.941Z,99830.71
2022-11-13T14:44:13.339Z,99828.62
2022-11-13T14:46:48.749Z,99824.11
2022-11-13T14:49:31.314Z,99822.98
2022-11-13T14:52:04.436Z,99821.61
2022-11-13T14:55:14.406Z,99828.71
2022-11-13T14:57:33.394Z,99829.36
2022-11-13T15:00:19.560Z,99817.05
2022-11-13T15:02:52.849Z,99820.68
2022-11-13T15:05:25.131Z,99819.81
2022-11-13T15:08:00.694Z,99825.17
2022-11-13T15:10:33.941Z,99819.04
2022-11-13T15:13:13.792Z,99818.93
2022-11-13T15:15:46.340Z,99818.80
2022-11-13T15:18:24.222Z,99809.53
2022-11-13T15:20:57.262Z,99806.01
2022-11-13T15:23:30.690Z,99807.95
2022-11-13T15:26:03.729Z,99807.13
2022-11-13T15:28:37.355Z,99805.82
2022-11-13T15:31:19.441Z,99810.48
2022-11-13T15:33:53.824Z,99815.09
2022-11-13T15:36:26.438Z,99822.94
2022-11-13T15:39:03.465Z,99828.31
2022-11-13T15:41:40.016Z,99830.09
2022-11-13T15:44:15.890Z,99824.67
2022-11-13T15:46:49.805Z,99824.01
2022-11-13T15:49:21.845Z,99825.96
2022-11-13T15:51:54.365Z,99828.16
2022-11-13T15:54:28.850Z,99822.92
2022-11-13T15:57:04.672Z,99825.86
2022-11-13T15:59:37.249Z,99822.98
2022-11-13T16:02:11.252Z,99829.77
2022-11-13T16:04:56.212Z,99834.82
2022-11-13T16:07:32.364Z,99836.20
2022-11-13T16:10:05.608Z,99841.05
2022-11-13T16:12:38.729Z,99842.92
2022-11-13T16:15:16.843Z,99841.67
2022-11-13T16:17:52.039Z,99842.43
2022-11-13T16:20:24.210Z,99841.77
2022-11-13T16:22:58.331Z,99841.49
2022-11-13T16:25:30.721Z,99839.42
2022-11-13T16:28:03.756Z,99843.42
2022-11-13T16:30:37.401Z,99846.95
2022-11-13T16:33:11.558Z,99845.45
2022-11-13T16:35:46.220Z,99843.86
2022-11-13T16:38:20.173Z,99840.50
2022-11-13T16:40:54.393Z,99835.98
2022-11-13T16:43:31.961Z,99842.17
2022-11-13T16:46:08.083Z,99843.58
2022-11-13T16:48:45.213Z,99846.68
2022-11-13T16:51:18.633Z,99849.98
2022-11-13T16:53:53.713Z,99849.10
2022-11-13T16:56:31.359Z,99847.89
2022-11-13T16:59:06.781Z,99845.79
2022-11-13T17:01:39.743Z,99845.30
2022-11-13T17:04:14.426Z,99843.78
2022-11-13T17:06:47.663Z,99841.08
2022-11-13T17:09:20.866Z,99839.25
2022-11-13T17:11:53.983Z,99841.48
2022-11-13T17:14:30.132Z,99847.73
2022-11-13T17:17:06.320Z,99845.75
2022-11-13T17:19:44.119Z,99842.02
2022-11-13T17:22:17.972Z,99843.49
2022-11-13T17:24:51.291Z,99846.02
2022-11-13T17:27:23.806Z,99844.65
2022-11-13T17:29:56.366Z,99842.80
2022-11-13T17:32:32.727Z,99838.20
2022-11-13T17:35:06.029Z,99835.98
2022-11-13T17:37:38.676Z,99829.73
2022-11-13T17:40:13.948Z,99830.82
2022-11-13T17:42:48.136Z,99833.74
2022-11-13T17:45:21.704Z,99837.00
2022-11-13T17:47:54.338Z,99839.70
2022-11-13T17:50:27.605Z,99841.58
2022-11-13T17:53:06.261Z,99836.89
2022-11-13T17:55:38.913Z,99839.16
2022-11-13T17:58:11.291Z,99833.19
2022-11-13T18:00:46.006Z,99831.64
2022-11-13T18:03:22.250Z,99830.01
2022-11-13T18:05:54.884Z,99829.33
2022-11-13T18:08:26.971Z,99823.52
2022-11-13T18:11:01.118Z,99823.61
2022-11-13T18:13:33.700Z,99814.91
2022-11-13T18:16:14.886Z,99815.35
2022-11-13T18:18:48.938Z,99811.95
2022-11-13T18:21:23.690Z,99813.65
2022-11-13T18:24:02.699Z,99817.86
2022-11-13T18:26:36.877Z,99822.95
2022-11-13T18:29:09.282Z,99824.05
2022-11-13T18:31:41.411Z,99830.59
2022-11-13T18:34:16.732Z,99826.27
2022-11-13T18:36:48.819Z,99822.45
2022-11-13T18:39:22.521Z,99825.52
2022-11-13T18:41:59.326Z,99826.10
2022-11-13T18:44:32.305Z,99824.08
2022-11-13T18:47:06.026Z,99823.84
2022-11-13T18:49:42.378Z,99821.02
2022-11-13T18:52:15.328Z,99819.56
2022-11-13T18:54:48.055Z,99819.90
2022-11-13T18:57:24.164Z,99821.39
2022-11-13T18:59:59.220Z,99821.90
2022-11-13T19:02:32.563Z,99823.42
2022-11-13T19:05:06.520Z,99830.90
2022-11-13T19:07:40.384Z,99828.29
2022-11-13T19:10:17.975Z,99825.09
2022-11-13T19:12:50.301Z,99826.25
2022-11-13T19:15:25.905Z,99824.38
2022-11-13T19:17:59.346Z,99821.03
2022-11-13T19:20:36.364Z,99826.38
2022-11-13T19:23:09.533Z,99823.39
2022-11-13T19:25:47.980Z,99823.57
2022-11-13T19:28:20.294Z,99820.98
2022-11-13T19:30:54.897Z,99820.05
2022-11-13T19:33:31.424Z,99820.76
2022-11-13T19:36:09.539Z,99819.89
2022-11-13T19:38:45.337Z,99826.41
2022-11-13T19:41:17.339Z,99824.66
2022-11-13T19:43:50.343Z,99822.20
2022-11-13T19:46:23.956Z,99816.66
2022-11-13T19:48:57.108Z,99811.30
2022-11-13T19:51:32.911Z,99814.05
2022-11-13T19:54:05.897Z,99814.45
2022-11-13T19:56:37.900Z,99818.50
2022-11-13T19:59:13.012Z,99814.52
2022-11-13T20:01:48.265Z,99815.95
2022-11-13T20:04:22.069Z,99814.41
2022-11-13T20:06:55.542Z,99814.91
2022-11-13T20:09:31.557Z,99817.57
2022-11-13T20:12:06.652Z,99813.09
2022-11-13T20:14:41.737Z,99817.94
2022-11-13T20:17:15.245Z,99819.36
2022-11-13T20:19:47.260Z,99812.83
2022-11-13T20:22:20.247Z,99816.17
2022-11-13T20:24:53.542Z,99811.67
2022-11-13T20:27:26.631Z,99810.23
2022-11-13T20:29:59.471Z,99810.10
2022-11-13T20:32:32.053Z,99808.29
2022-11-13T20:35:04.203Z,99809.65
2022-11-13T20:37:36.735Z,99806.55
2022-11-13T20:40:12.760Z,99798.48
2022-11-13T20:42:46.053Z,99793.26
2022-11-13T20:45:20.312Z,99794.69
2022-11-13T20:47:52.420Z,99795.06
2022-11-13T20:50:24.585Z,99794.55
2022-11-13T20:52:56.521Z,99797.11
2022-11-13T20:55:31.323Z,99797.21
2022-11-13T20:58:03.335Z,99800.44
2022-11-13T21:00:36.442Z,99804.94
2022-11-13T21:03:10.670Z,99802.92
2022-11-13T21:05:46.442Z,99808.02
2022-11-13T21:08:18.805Z,99809.83
2022-11-13T21:10:52.268Z,99802.86
2022-11-13T21:13:24.881Z,99806.77
2022-11-13T21:15:58.333Z,99806.36
2022-11-13T21:18:32.976Z,99808.43
2022-11-13T21:21:12.373Z,99802.02
2022-11-13T21:23:49.234Z,99806.41
2022-11-13T21:26:22.606Z,99802.89
2022-11-13T21:28:58.378Z,99806.55
2022-11-13T21:31:33.706Z,99804.59
2022-11-13T21:34:10.245Z,99803.92
2022-11-13T21:36:42.109Z,99801.36
2022-11-13T21:39:16.029Z,99802.44
2022-11-13T21:41:48.748Z,99805.67
2022-11-13T21:44:21.395Z,99800.45
2022-11-13T21:46:54.381Z,99796.59
2022-11-13T21:49:27.621Z,99797.11
2022-11-13T21:52:01.452Z,99789.36
2022-11-13T21:54:34.212Z,99787.80
2022-11-13T21:57:07.645Z,99786.48
2022-11-13T21:59:40.439Z,99786.45
2022-11-13T22:02:14.009Z,99785.81
2022-11-13T22:04:47.100Z,99787.50
2022-11-13T22:07:20.774Z,99793.03
2022-11-13T22:09:53.702Z,99791.02
2022-11-13T22:12:26.859Z,99789.53
2022-11-13T22:15:00.955Z,99783.77
2022-11-13T22:17:34.165Z,99784.45
2022-11-13T22:20:09.010Z,99788.31
2022-11-13T22:22:41.190Z,99788.38
2022-11-13T22:25:13.232Z,99792.34
2022-11-13T22:27:45.230Z,99797.48
2022-11-13T22:30:19.401Z,99792.36
2022-11-13T22:32:51.374Z,99790.61
2022-11-13T22:35:23.930Z,99789.46
2022-11-13T22:37:56.734Z,99784.03
2022-11-13T22:40:31.087Z,99780.27
2022-11-13T22:43:03.358Z,99777.92
2022-11-13T22:45:37.065Z,99776.39
2022-11-13T22:48:12.597Z,99769.76
2022-11-13T22:50:44.497Z,99777.02
2022-11-13T22:53:17.432Z,99778.08
2022-11-13T22:55:49.338Z,99782.82
2022-11-13T22:58:23.406Z,99782.52
2022-11-13T23:00:55.832Z,99778.56
2022-11-13T23:03:28.834Z,99771.65
2022-11-13T23:06:04.560Z,99768.18
2022-11-13T23:08:39.063Z,99768.54
2022-11-13T23:11:14.400Z,99760.64
2022-11-13T23:13:48.996Z,99756.41
2022-11-13T23:16:22.712Z,99754.04
2022-11-13T23:18:57.950Z,99750.44
2022-11-13T23:21:31.422Z,99744.92
2022-11-13T23:24:03.810Z,99741.72
2022-11-13T23:26:35.881Z,99738.52
2022-11-13T23:29:08.493Z,99736.17
2022-11-13T23:31:40.353Z,99738.58
2022-11-13T23:34:26.927Z,99732.31
2022-11-13T23:37:09.590Z,99725.55
2022-11-13T23:39:42.676Z,99722.15
2022-11-13T23:42:23.976Z,99717.42
2022-11-13T23:45:06.415Z,99717.66
2022-11-13T23:47:40.441Z,99716.48
2022-11-13T23:50:13.759Z,99718.58
2022-11-13T23:52:46.572Z,99722.79
2022-11-13T23:55:21.287Z,99722.98
2022-11-13T23:58:00.652Z,99727.77
